Huvudsida
METAR-TAF:

METAR-TAF

Flygplatser :

Budapest-Ferenc Liszts internationella flygplats

Budapest, Ungern

latitud: 47-26N, longitud: 019-16E, höjd: 151 m

Aktuellt väderrapport

Denna rapport gjordes för 25 minuter sedan, klockan 09:30 UTC
Vind 5 kt från nord/nordost
Temperatur 30°C
Fuktighet 49%
Tryck 1020 hPa
Sikt 10 km eller mer
Inga moln under 1 500 m eller inga cumulonimbus

METAR: LHBP 190930Z 02005KT CAVOK 30/18 Q1020 NOSIG

Tid: 11:55 (09:55 UTC)

Väderprognos

Denna rapport gjordes för 4 timmar och 40 minuter sedan, klockan 05:15 UTC
Prognos gäller från 19 kl. 06 UTC till 20 kl. 06 UTC
Vind 5 kt från nord/nordväst
Sikt 10 km eller mer
Inga moln under 1 500 m eller inga cumulonimbus
Blir
från 19 kl. 06 UTC till 19 kl. 08 UTC
Vind 7 kt från ost/nordost
Blir
från 19 kl. 18 UTC till 19 kl. 20 UTC
Vind 3 kt varierande vindriktning

TAF: LHBP 190515Z 1906/2006 34005KT CAVOK BECMG 1906/1908 07007KT BECMG 1918/1920 VRB03KT

Aktuella väderrapporter och prognoser från 4000 flygplatser (METAR- och TAF-rapporter).

De tillgängliga stationerna syns som gula och röda prickar på kartan.

För musen över prickarna för att se namnen på stationerna.

Klicka sedan för att få väderrapporter och prognoser.

För att ändra kartan: Klicka på de gröna knapparna med ett svart kors på för att zooma in; den gröna knappen med ett streck på för att zooma ut; eller på de gröna pilarna för angränsande kartor.


METAR-TAF: